Time;durP1;ratioP1;P1;durP2;ratioP2;P2;SDS_P1;SDS_P2;PMS_P1;PMS_P2;Temp;Humidity;BMP_temperature;BMP_pressure;BME280_temperature;BME280_humidity;BME280_pressure;Samples;Min_cycle;Max_cycle;Signal;HPM_P1;HPM_P2
2023/09/03 00:00:32;;;;;;;27.58;23.17;;;;;;;13.32;100.00;102543.53;6246347;23;20004;-80
2023/09/03 00:02:57;;;;;;;24.88;22.38;;;;;;;13.20;100.00;102529.38;6218929;23;20008;-80
2023/09/03 00:05:23;;;;;;;23.58;21.08;;;;;;;13.14;100.00;102522.69;6245609;23;20004;-81
2023/09/03 00:07:50;;;;;;;24.88;22.25;;;;;;;13.12;100.00;102523.69;6246111;23;20008;-81
2023/09/03 00:10:15;;;;;;;28.08;22.58;;;;;;;13.15;100.00;102528.72;6245984;23;20322;-80
2023/09/03 00:12:41;;;;;;;25.30;22.63;;;;;;;13.04;100.00;102512.81;6245720;23;20011;-79
2023/09/03 00:15:06;;;;;;;24.92;22.38;;;;;;;13.16;100.00;102530.41;6245879;23;20012;-80
2023/09/03 00:17:32;;;;;;;22.85;20.45;;;;;;;13.06;100.00;102519.59;6245710;23;20073;-80
2023/09/03 00:19:57;;;;;;;22.42;20.23;;;;;;;13.05;100.00;102525.72;6218645;23;20015;-80
2023/09/03 00:22:22;;;;;;;23.73;21.13;;;;;;;12.97;100.00;102534.75;6245761;23;20012;-80
2023/09/03 00:24:49;;;;;;;23.50;20.25;;;;;;;12.95;100.00;102546.94;6217997;23;20026;-80
2023/09/03 00:27:15;;;;;;;21.17;18.98;;;;;;;12.60;100.00;102502.72;6218796;23;20031;-80
2023/09/03 00:29:40;;;;;;;22.35;19.90;;;;;;;12.93;100.00;102541.84;6245689;23;20066;-80
2023/09/03 00:32:06;;;;;;;22.70;20.40;;;;;;;12.63;100.00;102500.84;6245756;23;20004;-80
2023/09/03 00:34:32;;;;;;;22.45;20.05;;;;;;;12.62;100.00;102495.72;6245571;23;20004;-80
2023/09/03 00:36:58;;;;;;;21.30;19.13;;;;;;;12.92;100.00;102545.34;6245188;23;20004;-80
2023/09/03 00:39:23;;;;;;;22.73;20.13;;;;;;;12.92;100.00;102548.78;6245958;23;20014;-80
2023/09/03 00:41:48;;;;;;;22.48;20.08;;;;;;;12.88;100.00;102549.84;6245505;23;20011;-80
2023/09/03 00:44:16;;;;;;;23.20;20.70;;;;;;;12.44;100.00;102473.22;6242903;22;20011;-80
2023/09/03 00:46:51;;;;;;;24.00;21.40;;;;;;;11.87;100.00;102394.56;6245807;23;20027;-80
2023/09/03 00:49:46;;;;;;;22.40;19.38;;;;;;;12.27;100.00;102467.03;6245408;23;20002;-80
2023/09/03 00:52:27;;;;;;;21.92;19.73;;;;;;;11.56;100.00;102362.22;6244370;23;20004;-80
2023/09/03 00:54:54;;;;;;;20.52;18.13;;;;;;;11.90;100.00;102428.13;6245605;23;20004;-80
2023/09/03 00:57:34;;;;;;;21.10;18.92;;;;;;;12.66;100.00;102567.22;6245645;23;20019;-80
2023/09/03 01:00:23;;;;;;;23.05;20.50;;;;;;;11.88;100.00;102424.72;6245443;23;20015;-80
2023/09/03 01:02:50;;;;;;;21.92;19.63;;;;;;;11.91;100.00;102453.94;6245672;23;20062;-80
2023/09/03 01:05:16;;;;;;;23.10;19.90;;;;;;;12.70;100.00;102579.16;6245179;23;20004;-80
2023/09/03 01:07:41;;;;;;;23.77;20.52;;;;;;;12.68;100.00;102569.75;6245739;23;20487;-80
2023/09/03 01:10:07;;;;;;;21.52;19.42;;;;;;;12.67;100.00;102575.84;6245257;23;20332;-80
2023/09/03 01:12:54;;;;;;;25.40;20.73;;;;;;;12.71;100.00;102567.06;6245303;23;20014;-80
2023/09/03 01:15:28;;;;;;;24.83;20.38;;;;;;;12.71;100.00;102552.34;6245595;23;20038;-80
2023/09/03 01:18:01;;;;;;;23.40;20.98;;;;;;;12.51;100.00;102506.56;6245795;23;20000;-80
2023/09/03 01:20:38;;;;;;;24.75;21.70;;;;;;;12.78;100.00;102552.88;6245155;23;20004;-78
2023/09/03 01:23:10;;;;;;;22.48;20.13;;;;;;;12.75;100.00;102558.22;6218607;23;20334;-80
2023/09/03 01:25:35;;;;;;;;;;;;;;;12.75;100.00;102561.66;6245838;23;20000;-80
2023/09/03 01:28:19;;;;;;;22.33;19.80;;;;;;;12.72;100.00;102560.94;6245414;23;19911;-80
2023/09/03 01:30:45;;;;;;;20.85;18.52;;;;;;;12.69;100.00;102564.53;6245279;23;20239;-80
2023/09/03 01:33:12;;;;;;;20.23;18.10;;;;;;;12.24;100.00;102495.66;6217669;23;20012;-80
2023/09/03 01:35:38;;;;;;;21.95;18.95;;;;;;;12.60;100.00;102559.75;6245663;23;20088;-80
2023/09/03 01:38:22;;;;;;;23.50;18.90;;;;;;;12.53;100.00;102568.69;6243255;22;20023;-80
2023/09/03 01:41:01;;;;;;;19.55;17.48;;;;;;;11.28;100.00;102379.81;6245559;23;20027;-80
2023/09/03 01:44:08;;;;;;;21.05;17.33;;;;;;;12.47;100.00;102563.75;6245447;23;20417;-80
2023/09/03 01:46:59;;;;;;;20.63;18.33;;;;;;;11.18;100.00;102369.81;6245243;23;20008;-80
2023/09/03 01:49:49;;;;;;;19.07;17.03;;;;;;;12.39;100.00;102556.34;6245795;23;20324;-80
2023/09/03 01:53:02;;;;;;;21.08;17.33;;;;;;;12.35;100.00;102555.63;6244810;23;20008;-80
2023/09/03 01:55:40;;;;;;;19.40;17.23;;;;;;;11.89;100.00;102501.47;6245438;23;20031;-80
2023/09/03 01:58:09;;;;;;;19.25;17.17;;;;;;;11.81;100.00;102493.22;6245505;23;20015;-80
2023/09/03 02:00:38;;;;;;;19.55;17.40;;;;;;;11.75;100.00;102489.09;6242721;23;20030;-80
2023/09/03 02:03:24;;;;;;;20.20;17.27;;;;;;;12.25;100.00;102571.63;6242583;23;20070;-80
2023/09/03 02:06:27;;;;;;;20.90;17.83;;;;;;;12.23;100.00;102576.88;6242647;23;20008;-80
2023/09/03 02:09:05;;;;;;;18.80;16.60;;;;;;;11.96;100.00;102531.41;6213076;23;20017;-80
2023/09/03 02:11:36;;;;;;;19.48;16.08;;;;;;;11.75;100.00;102510.63;6240516;23;20028;-79
2023/09/03 02:14:02;;;;;;;18.90;16.90;;;;;;;12.17;100.00;102584.88;6245492;23;20441;-80
2023/09/03 02:16:27;;;;;;;20.27;16.45;;;;;;;11.75;100.00;102526.16;6245395;23;20015;-79
2023/09/03 02:18:59;;;;;;;18.80;16.80;;;;;;;11.18;100.00;102450.00;6245574;23;20402;-79
2023/09/03 02:21:43;;;;;;;;;;;;;;;12.16;100.00;102595.31;6245625;23;20008;-79
2023/09/03 02:24:08;;;;;;;19.42;17.13;;;;;;;11.31;100.00;102450.38;6244879;23;19907;-79
2023/09/03 02:26:45;;;;;;;20.85;17.60;;;;;;;12.15;100.00;102594.47;6245300;23;20035;-81
2023/09/03 02:29:12;;;;;;;19.60;16.67;;;;;;;12.06;100.00;102589.66;6246582;23;20028;-81
2023/09/03 02:31:37;;;;;;;22.40;18.17;;;;;;;12.16;100.00;102600.47;6247306;23;20004;-81
2023/09/03 02:34:04;;;;;;;19.92;17.77;;;;;;;12.15;100.00;102604.81;6246549;23;20407;-79
2023/09/03 02:36:31;;;;;;;21.65;17.88;;;;;;;12.14;100.00;102599.72;6246577;23;20004;-81
2023/09/03 02:39:01;;;;;;;20.00;16.60;;;;;;;11.93;100.00;102566.03;6247043;23;20364;-78
2023/09/03 02:41:29;;;;;;;18.90;16.90;;;;;;;12.07;100.00;102593.94;6220310;23;20373;-80
2023/09/03 02:43:56;;;;;;;18.85;16.60;;;;;;;11.93;100.00;102571.22;6246836;23;20004;-80
2023/09/03 02:46:21;;;;;;;18.55;16.65;;;;;;;12.02;100.00;102576.00;6246439;23;20046;-79
2023/09/03 02:48:46;;;;;;;20.08;17.33;;;;;;;12.04;100.00;102578.53;6246803;23;20000;-80
2023/09/03 02:51:12;;;;;;;20.05;16.15;;;;;;;12.02;100.00;102578.59;6247136;23;19996;-80
2023/09/03 02:53:37;;;;;;;19.20;16.52;;;;;;;12.01;100.00;102579.50;6246772;23;20007;-80
2023/09/03 02:56:02;;;;;;;19.58;16.70;;;;;;;11.83;100.00;102556.13;6246962;23;20330;-80
2023/09/03 02:58:28;;;;;;;21.10;17.75;;;;;;;12.00;100.00;102587.34;6246988;23;20007;-80
2023/09/03 03:00:53;;;;;;;19.38;17.00;;;;;;;11.90;100.00;102573.94;6246782;23;20381;-80
2023/09/03 03:03:18;;;;;;;21.20;18.40;;;;;;;12.02;100.00;102596.72;6246656;23;20005;-79
2023/09/03 03:05:44;;;;;;;19.48;17.35;;;;;;;11.99;100.00;102603.75;6246784;23;20008;-79
2023/09/03 03:08:09;;;;;;;21.48;17.90;;;;;;;11.98;100.00;102602.06;6246361;23;20036;-80
2023/09/03 03:10:35;;;;;;;18.67;15.93;;;;;;;11.89;100.00;102592.94;6246445;23;20007;-80
2023/09/03 03:13:00;;;;;;;20.23;15.35;;;;;;;11.93;100.00;102591.06;6246644;23;20031;-80
2023/09/03 03:15:26;;;;;;;18.45;15.73;;;;;;;11.56;100.00;102525.22;6246454;23;20426;-80
2023/09/03 03:20:27;;;;;;;18.83;16.48;;;;;;;11.25;100.00;102466.13;6185401;23;20024;-80
2023/09/03 03:22:58;;;;;;;21.10;17.65;;;;;;;11.82;100.00;102554.44;6159417;23;20015;-80
2023/09/03 03:25:27;;;;;;;20.40;17.20;;;;;;;11.09;100.00;102432.25;6153791;23;20009;-80
2023/09/03 03:27:53;;;;;;;21.45;17.17;;;;;;;11.94;100.00;102546.16;6185660;23;20443;-80
2023/09/03 03:30:25;;;;;;;20.98;17.65;;;;;;;10.76;100.00;102358.63;6186270;23;20005;-80
2023/09/03 03:32:57;;;;;;;20.08;17.55;;;;;;;11.91;100.00;102554.06;6186100;23;20013;-80
2023/09/03 03:35:23;;;;;;;19.85;17.00;;;;;;;11.71;100.00;102534.13;6185972;23;20011;-80
2023/09/03 03:37:57;;;;;;;19.05;17.05;;;;;;;11.46;100.00;102511.81;6185656;23;20421;-80
2023/09/03 03:40:40;;;;;;;19.90;17.75;;;;;;;11.92;100.00;102598.00;6185182;23;20092;-80
2023/09/03 03:43:24;;;;;;;20.52;16.50;;;;;;;10.77;100.00;102419.75;6174539;23;20013;-80
2023/09/03 03:45:51;;;;;;;21.67;16.70;;;;;;;11.15;100.00;102480.31;6186169;23;20342;-80
2023/09/03 03:48:34;;;;;;;18.73;16.00;;;;;;;11.20;100.00;102484.38;6186276;23;20001;-80
2023/09/03 03:51:00;;;;;;;21.00;17.15;;;;;;;11.43;100.00;102517.13;6186319;23;20001;-80
2023/09/03 03:53:39;;;;;;;18.60;14.85;;;;;;;10.57;100.00;102389.50;6185488;23;20032;-80
2023/09/03 03:56:12;;;;;;;19.25;16.10;;;;;;;11.57;100.00;102564.88;6185832;23;20305;-79
2023/09/03 03:58:46;;;;;;;19.25;17.10;;;;;;;10.58;100.00;102411.84;6154194;23;20002;-80
2023/09/03 04:04:13;;;;;;;;;;;;;;;;;;;;;
2023/09/03 04:07:07;;;;;;;20.42;16.48;;;;;;;10.58;100.00;102423.03;6109037;23;20083;-80
2023/09/03 04:09:35;;;;;;;21.95;18.92;;;;;;;11.32;100.00;102539.97;6184672;23;20415;-80
2023/09/03 04:12:15;;;;;;;19.63;15.93;;;;;;;10.70;100.00;102457.88;6154211;23;19999;-80
2023/09/03 04:14:46;;;;;;;19.30;16.38;;;;;;;11.29;100.00;102560.75;6170080;23;20308;-80
2023/09/03 04:17:21;;;;;;;;;;;;;;;11.73;100.00;102617.72;6184840;23;20037;-79
2023/09/03 04:19:57;;;;;;;21.23;16.33;;;;;;;10.68;100.00;102456.25;6198936;23;19912;-80
2023/09/03 04:22:26;;;;;;;20.30;17.02;;;;;;;10.44;100.00;102417.53;6215128;23;20019;-79
2023/09/03 04:25:03;;;;;;;20.33;17.05;;;;;;;11.36;100.00;102553.63;6215619;23;20001;-80
2023/09/03 04:27:29;;;;;;;23.52;19.08;;;;;;;11.23;100.00;102530.00;6215343;23;20554;-80
2023/09/03 04:29:57;;;;;;;21.52;17.33;;;;;;;11.71;100.00;102614.38;6215367;23;20036;-79
2023/09/03 04:32:22;;;;;;;24.15;18.50;;;;;;;11.71;100.00;102614.38;6215593;23;20004;-79
2023/09/03 04:34:48;;;;;;;21.52;17.70;;;;;;;11.22;100.00;102536.06;6215836;23;20426;-80
2023/09/03 04:37:29;;;;;;;22.02;17.42;;;;;;;10.46;100.00;102415.75;6215999;23;20441;-79
2023/09/03 04:40:16;;;;;;;22.08;17.77;;;;;;;11.73;100.00;102626.34;6215341;23;20004;-80
2023/09/03 04:42:47;;;;;;;21.55;16.80;;;;;;;10.88;100.00;102472.69;6215700;23;20035;-79
2023/09/03 04:45:29;;;;;;;;;;;;;;;11.74;100.00;102616.81;6215601;23;20319;-80
2023/09/03 04:47:56;;;;;;;22.23;17.45;;;;;;;10.99;100.00;102515.41;6215667;23;19904;-80
2023/09/03 04:50:28;;;;;;;22.08;17.27;;;;;;;10.57;100.00;102452.34;6214475;23;20076;-80
2023/09/03 04:52:56;;;;;;;22.55;17.92;;;;;;;11.71;100.00;102646.25;6215567;23;20004;-80
2023/09/03 04:55:22;;;;;;;20.33;17.17;;;;;;;11.69;100.00;102653.22;6215213;23;20335;-80
2023/09/03 04:57:47;;;;;;;20.70;17.75;;;;;;;11.70;100.00;102654.94;6215202;23;19997;-80
2023/09/03 05:00:13;;;;;;;21.52;17.58;;;;;;;11.74;100.00;102653.91;6215142;23;20083;-80
2023/09/03 05:02:38;;;;;;;25.67;16.88;;;;;;;11.67;100.00;102644.66;6215173;23;20001;-80
2023/09/03 05:05:04;;;;;;;17.85;15.93;;;;;;;11.68;100.00;102645.50;6188225;23;20012;-79
2023/09/03 05:07:30;;;;;;;20.08;16.27;;;;;;;11.74;100.00;102656.47;6215403;23;20008;-80
2023/09/03 05:09:56;;;;;;;24.95;18.70;;;;;;;11.62;100.00;102630.25;6215184;23;20001;-80
2023/09/03 05:12:22;;;;;;;22.38;17.80;;;;;;;11.90;100.00;102669.72;6215149;23;20001;-80
2023/09/03 05:14:48;;;;;;;20.42;17.23;;;;;;;11.94;100.00;102667.84;6214698;23;20001;-80
2023/09/03 05:17:13;;;;;;;18.63;16.13;;;;;;;11.97;100.00;102667.72;6214862;23;20281;-80
2023/09/03 05:19:39;;;;;;;21.33;17.95;;;;;;;12.02;100.00;102666.63;6214917;23;20016;-81
2023/09/03 05:22:05;;;;;;;19.05;16.98;;;;;;;12.02;100.00;102665.78;6215470;23;20004;-80
2023/09/03 05:24:31;;;;;;;19.35;17.25;;;;;;;11.86;100.00;102631.03;6215083;23;20011;-80
2023/09/03 05:26:56;;;;;;;21.15;18.40;;;;;;;12.14;100.00;102675.66;6214946;23;20500;-80
2023/09/03 05:29:21;;;;;;;21.30;17.60;;;;;;;12.20;100.00;102672.84;6215270;23;20028;-80
2023/09/03 05:31:47;;;;;;;21.08;18.75;;;;;;;12.27;100.00;102678.59;6214878;23;20011;-80
2023/09/03 05:34:12;;;;;;;22.13;19.73;;;;;;;12.34;100.00;102680.03;6215316;23;20012;-80
2023/09/03 05:36:38;;;;;;;20.42;17.48;;;;;;;12.20;100.00;102662.47;6214851;23;20019;-80
2023/09/03 05:39:04;;;;;;;21.00;18.35;;;;;;;12.30;100.00;102660.34;6214972;23;20004;-80
2023/09/03 05:41:29;;;;;;;21.13;18.60;;;;;;;12.35;100.00;102658.41;6215255;23;20323;-79
2023/09/03 05:43:56;;;;;;;21.30;18.20;;;;;;;12.32;100.00;102636.06;6214774;23;20039;-80
2023/09/03 05:46:21;;;;;;;20.00;17.42;;;;;;;12.65;100.00;102682.19;6214769;23;20008;-81
2023/09/03 05:48:50;;;;;;;20.65;17.63;;;;;;;12.72;100.00;102683.63;6215188;23;20439;-80
2023/09/03 05:51:16;;;;;;;19.75;17.65;;;;;;;12.77;100.00;102684.25;6214806;23;20407;-80
2023/09/03 05:53:41;;;;;;;20.40;18.23;;;;;;;12.82;100.00;102684.91;6215132;23;20009;-80
2023/09/03 05:56:11;;;;;;;21.27;18.75;;;;;;;12.79;100.00;102674.69;6214297;23;20001;-80
2023/09/03 05:58:38;;;;;;;22.63;17.65;;;;;;;13.00;100.00;102698.00;6188248;23;20492;-79
2023/09/03 06:01:08;;;;;;;19.75;17.70;;;;;;;12.96;100.00;102678.28;6214576;23;20055;-81
2023/09/03 06:03:33;;;;;;;19.58;17.00;;;;;;;13.18;100.00;102682.47;6216872;23;20054;-80
2023/09/03 06:06:04;;;;;;;19.00;16.55;;;;;;;13.27;100.00;102690.78;6215745;23;20000;-80
2023/09/03 06:08:33;;;;;;;17.70;15.80;;;;;;;13.12;100.00;102663.75;6217339;23;20000;-81
2023/09/03 06:11:03;;;;;;;22.23;16.23;;;;;;;13.46;100.00;102715.84;6190168;23;20000;-80
2023/09/03 06:13:30;;;;;;;18.73;16.75;;;;;;;13.48;100.00;102715.78;6216219;23;20036;-80
2023/09/03 06:15:56;;;;;;;18.90;16.38;;;;;;;13.61;100.00;102727.28;6216678;23;20009;-81
2023/09/03 06:18:25;;;;;;;19.98;17.77;;;;;;;13.67;100.00;102723.59;6216555;23;20323;-80
2023/09/03 06:20:51;;;;;;;20.40;17.42;;;;;;;13.79;100.00;102733.41;6189902;23;20054;-81
2023/09/03 06:23:18;;;;;;;21.10;17.33;;;;;;;14.07;100.00;102733.81;6216358;23;20009;-81
2023/09/03 06:25:45;;;;;;;20.30;17.02;;;;;;;14.27;100.00;102740.66;6189361;23;20042;-81
2023/09/03 06:28:11;;;;;;;20.08;16.88;;;;;;;14.45;100.00;102746.72;6216479;23;20323;-81
2023/09/03 06:30:36;;;;;;;18.70;16.83;;;;;;;14.61;100.00;102746.81;6216436;23;20012;-81
2023/09/03 06:33:02;;;;;;;18.40;16.45;;;;;;;14.78;100.00;102749.44;6216166;23;20011;-77
2023/09/03 06:35:28;;;;;;;20.23;17.65;;;;;;;14.92;100.00;102748.72;6216139;23;20016;-82
2023/09/03 06:37:53;;;;;;;19.40;17.13;;;;;;;14.22;100.00;102623.09;6216893;22;20005;-81
2023/09/03 06:40:25;;;;;;;17.98;16.17;;;;;;;14.23;100.00;102606.56;6216518;23;20075;-80
2023/09/03 06:43:06;;;;;;;19.50;16.92;;;;;;;14.25;100.00;102590.91;6216090;23;20155;-81
2023/09/03 06:45:43;;;;;;;19.50;16.17;;;;;;;15.32;100.00;102738.88;6216183;23;20001;-78
2023/09/03 06:48:11;;;;;;;20.60;16.75;;;;;;;15.97;100.00;102778.81;6216524;23;20079;-81
2023/09/03 06:50:56;;;;;;;19.45;16.67;;;;;;;15.56;100.00;102609.97;6216658;23;20008;-81
2023/09/03 06:53:22;;;;;;;20.48;16.45;;;;;;;17.39;100.00;102792.34;6216308;23;20009;-81
2023/09/03 06:55:59;;;;;;;20.20;14.93;;;;;;;17.28;100.00;102614.59;6216319;23;20000;-81
2023/09/03 06:58:38;;;;;;;16.15;14.45;;;;;;;17.89;100.00;102620.28;6215895;23;20365;-81
2023/09/03 07:01:07;;;;;;;15.90;13.95;;;;;;;18.90;97.15;102740.00;6139294;23;20080;-81
2023/09/03 07:03:42;;;;;;;17.30;14.68;;;;;;;19.47;98.36;102792.78;6216380;23;20067;-81
2023/09/03 07:06:07;;;;;;;16.88;13.98;;;;;;;18.22;94.38;102649.47;6189576;23;20422;-77
2023/09/03 07:09:06;;;;;;;10.98;7.82;;;;;;;18.76;100.00;102795.03;6216505;23;20000;-78
2023/09/03 07:11:32;;;;;;;12.85;7.95;;;;;;;18.45;100.00;102801.41;6216222;23;20009;-78
2023/09/03 07:14:12;;;;;;;12.88;8.52;;;;;;;17.40;100.00;102660.84;6215817;23;20364;-78
2023/09/03 07:16:42;;;;;;;16.40;14.55;;;;;;;16.67;100.00;102600.06;6189388;23;20345;-78
2023/09/03 07:19:28;;;;;;;15.23;12.07;;;;;;;17.60;100.00;102752.75;6214585;23;20100;-77
2023/09/03 07:21:57;;;;;;;16.00;12.60;;;;;;;16.53;100.00;102602.69;6215810;23;20345;-78
2023/09/03 07:24:33;;;;;;;17.40;14.55;;;;;;;16.62;100.00;102636.88;6216245;23;20027;-77
2023/09/03 07:27:14;;;;;;;14.10;11.63;;;;;;;17.40;100.00;102743.53;6216010;23;20031;-78
2023/09/03 07:29:58;;;;;;;16.08;13.07;;;;;;;16.86;100.00;102629.38;6216257;23;20008;-76
2023/09/03 07:32:41;;;;;;;14.48;12.00;;;;;;;17.62;100.00;102738.69;6215654;23;20027;-80
2023/09/03 07:36:06;;;;;;;18.50;14.75;;;;;;;18.01;100.00;102810.34;6215835;23;20000;-77
2023/09/03 07:38:32;;;;;;;17.65;15.75;;;;;;;16.84;100.00;102640.84;6118371;23;20443;-79
2023/09/03 07:40:57;;;;;;;17.02;13.88;;;;;;;18.05;100.00;102822.28;6153271;23;20013;-78
2023/09/03 07:43:47;;;;;;;16.63;14.27;;;;;;;17.85;100.00;102789.53;6152932;23;20342;-78
2023/09/03 07:46:27;;;;;;;18.27;14.52;;;;;;;17.23;100.00;102666.25;6153269;23;20009;-78
2023/09/03 07:49:12;;;;;;;16.90;15.18;;;;;;;17.91;100.00;102770.88;6153423;23;20001;-78
2023/09/03 07:51:52;;;;;;;18.20;16.30;;;;;;;17.24;100.00;102675.78;6153367;23;20454;-78
2023/09/03 07:54:53;;;;;;;20.45;18.08;;;;;;;17.16;100.00;102652.75;6151946;23;20010;-77
2023/09/03 07:57:31;;;;;;;15.18;13.15;;;;;;;18.45;100.00;102838.88;6036392;23;20029;-79
2023/09/03 08:03:11;;;;;;;20.13;15.52;;;;;;;18.66;100.00;102828.00;6195293;23;20016;-79
2023/09/03 08:05:36;;;;;;;18.90;17.02;;;;;;;18.04;100.00;102722.09;6215649;23;20004;-76
2023/09/03 08:08:11;;;;;;;18.20;16.15;;;;;;;17.82;100.00;102666.06;6215609;23;20011;-77
2023/09/03 08:10:36;;;;;;;22.77;17.95;;;;;;;18.05;100.00;102704.63;6215698;23;20429;-78
2023/09/03 08:13:29;;;;;;;19.58;17.50;;;;;;;18.79;100.00;102800.09;6188521;23;20016;-79
2023/09/03 08:15:55;;;;;;;17.02;15.27;;;;;;;18.30;100.00;102693.41;6215521;23;20326;-79
2023/09/03 08:18:29;;;;;;;19.63;17.52;;;;;;;18.41;99.75;102724.09;6215422;23;20004;-79
2023/09/03 08:20:58;;;;;;;19.17;17.20;;;;;;;18.82;99.57;102779.78;6215431;23;20413;-76
2023/09/03 08:23:23;;;;;;;19.73;17.63;;;;;;;19.03;100.00;102813.31;6215526;23;20011;-80
2023/09/03 08:25:49;;;;;;;20.77;18.63;;;;;;;19.10;100.00;102812.81;6215546;23;20387;-80
2023/09/03 08:28:14;;;;;;;24.42;21.90;;;;;;;19.11;99.93;102817.09;6215342;23;20104;-80
2023/09/03 08:30:39;;;;;;;21.42;19.25;;;;;;;19.17;100.00;102821.06;6215352;23;20051;-80
2023/09/03 08:33:05;;;;;;;21.25;18.95;;;;;;;19.20;100.00;102821.72;6215484;23;20000;-77
2023/09/03 08:35:30;;;;;;;22.90;20.50;;;;;;;19.08;97.63;102817.31;6215209;23;20070;-78
2023/09/03 08:37:56;;;;;;;24.15;21.55;;;;;;;18.81;99.65;102785.94;6215262;23;20000;-78
2023/09/03 08:40:23;;;;;;;21.52;19.42;;;;;;;19.09;100.00;102826.00;6215432;23;20008;-76
2023/09/03 08:42:49;;;;;;;21.75;19.40;;;;;;;18.94;99.56;102800.84;6215164;23;20009;-79
2023/09/03 08:45:18;;;;;;;23.20;20.70;;;;;;;19.20;100.00;102832.19;6215378;23;20000;-80
2023/09/03 08:47:44;;;;;;;24.23;21.80;;;;;;;19.32;100.00;102840.16;6215809;23;20000;-80
2023/09/03 08:50:16;;;;;;;23.20;20.98;;;;;;;19.34;100.00;102825.16;6215563;23;20051;-81
2023/09/03 08:52:43;;;;;;;22.17;19.90;;;;;;;19.35;100.00;102808.50;6215449;23;20042;-81
2023/09/03 08:55:13;;;;;;;21.00;18.88;;;;;;;19.62;100.00;102832.81;6215374;23;20084;-81
2023/09/03 08:57:39;;;;;;;21.15;18.90;;;;;;;19.73;99.94;102839.94;6215081;23;20008;-79
2023/09/03 09:00:06;;;;;;;20.10;17.90;;;;;;;19.64;100.00;102803.88;6215272;23;20008;-79
2023/09/03 09:02:33;;;;;;;19.85;17.75;;;;;;;19.88;98.36;102838.88;6173124;23;20020;-79
2023/09/03 09:05:07;;;;;;;18.80;16.55;;;;;;;19.83;100.00;102806.88;6215100;23;20062;-79
2023/09/03 09:07:34;;;;;;;17.30;15.52;;;;;;;20.17;93.79;102839.44;6214730;23;20027;-79
2023/09/03 09:10:06;;;;;;;15.63;13.88;;;;;;;20.25;95.60;102839.69;6214952;23;20005;-79
2023/09/03 09:12:32;;;;;;;17.27;14.93;;;;;;;20.22;93.93;102816.31;6214672;23;20440;-79
2023/09/03 09:15:03;;;;;;;19.70;15.73;;;;;;;20.33;96.03;102836.53;6215065;23;20299;-79
2023/09/03 09:17:50;;;;;;;17.15;14.48;;;;;;;19.94;93.13;102772.88;6205031;22;20024;-78
2023/09/03 09:20:38;;;;;;;17.02;12.73;;;;;;;20.34;94.50;102839.03;6185526;23;20013;-79
2023/09/03 09:23:04;;;;;;;16.80;14.23;;;;;;;19.39;92.97;102677.19;6184996;23;20039;-79
2023/09/03 09:25:29;;;;;;;14.25;12.50;;;;;;;20.55;91.55;102844.56;6185090;23;20080;-79
2023/09/03 09:28:09;;;;;;;14.50;12.98;;;;;;;20.31;91.83;102768.41;6184630;23;20414;-79
2023/09/03 09:30:58;;;;;;;14.55;13.05;;;;;;;20.80;91.25;102834.84;6185024;23;20124;-79
2023/09/03 09:33:25;;;;;;;13.98;11.45;;;;;;;19.88;84.17;102678.09;6184839;23;20013;-79
2023/09/03 09:36:11;;;;;;;15.30;11.45;;;;;;;20.88;85.86;102829.88;6157758;23;20017;-79
2023/09/03 09:38:38;;;;;;;15.30;11.43;;;;;;;20.86;85.40;102823.91;6186781;23;20008;-79
2023/09/03 09:41:22;;;;;;;14.02;12.30;;;;;;;20.89;85.95;102821.88;6186997;23;20006;-77
2023/09/03 09:43:47;;;;;;;13.40;11.18;;;;;;;20.89;84.95;102821.88;6160533;23;20096;-78
2023/09/03 09:46:30;;;;;;;13.35;11.30;;;;;;;20.91;86.92;102809.44;6186908;23;20473;-79
2023/09/03 09:48:57;;;;;;;13.85;10.70;;;;;;;20.80;81.35;102792.84;6186731;23;20088;-78
2023/09/03 09:51:23;;;;;;;13.75;12.15;;;;;;;20.85;80.83;102811.72;6186563;23;20001;-78
2023/09/03 09:54:03;;;;;;;12.57;10.50;;;;;;;20.90;86.32;102812.19;6186999;23;20019;-78
2023/09/03 09:56:36;;;;;;;15.18;11.18;;;;;;;20.85;81.77;102819.59;6186597;23;20427;-78
2023/09/03 09:59:02;;;;;;;12.18;10.93;;;;;;;20.75;84.69;102819.44;6186402;23;20007;-79
2023/09/03 10:01:46;;;;;;;13.25;11.68;;;;;;;20.62;81.97;102795.88;6186681;23;20408;-78
2023/09/03 10:04:11;;;;;;;13.80;11.38;;;;;;;20.60;84.31;102802.19;6186487;23;20005;-77
2023/09/03 10:06:37;;;;;;;14.68;11.38;;;;;;;20.57;82.89;102803.28;6186692;23;20012;-78
2023/09/03 10:09:03;;;;;;;12.50;10.27;;;;;;;20.66;82.36;102814.88;6186948;23;20005;-78
2023/09/03 10:11:28;;;;;;;12.55;10.93;;;;;;;20.40;81.52;102773.94;6160206;23;20352;-78
2023/09/03 10:13:55;;;;;;;13.88;10.65;;;;;;;20.66;84.41;102821.94;6185803;23;20005;-78
2023/09/03 10:16:22;;;;;;;11.65;9.82;;;;;;;20.52;83.77;102792.25;6186465;23;20419;-78
2023/09/03 10:18:49;;;;;;;10.57;9.00;;;;;;;20.68;83.09;102815.59;6176891;23;20009;-78
2023/09/03 10:21:20;;;;;;;12.02;10.35;;;;;;;20.77;82.42;102821.97;6186472;23;20028;-77
2023/09/03 10:23:50;;;;;;;11.18;9.10;;;;;;;20.92;84.49;102810.28;6186537;23;20005;-78
2023/09/03 10:26:31;;;;;;;14.02;11.77;;;;;;;21.00;83.47;102799.22;6160069;23;20005;-78
2023/09/03 10:29:04;;;;;;;11.43;10.23;;;;;;;21.21;83.88;102802.81;6186194;23;20020;-78
2023/09/03 10:31:31;;;;;;;14.02;11.45;;;;;;;21.38;81.80;102812.06;6186478;23;20009;-78
2023/09/03 10:33:57;;;;;;;12.82;9.93;;;;;;;21.48;81.01;102813.84;6186198;23;20032;-78
2023/09/03 10:36:25;;;;;;;13.57;10.13;;;;;;;21.53;79.50;102807.41;6186275;23;20005;-78
2023/09/03 10:38:51;;;;;;;15.77;9.65;;;;;;;21.61;78.95;102812.91;6186285;23;20005;-78
2023/09/03 10:41:21;;;;;;;12.52;10.27;;;;;;;21.67;77.82;102815.06;6186507;23;20076;-78
2023/09/03 10:43:50;;;;;;;12.65;10.00;;;;;;;21.68;75.91;102816.72;6186161;23;20005;-78
2023/09/03 10:46:15;;;;;;;13.43;9.45;;;;;;;21.74;77.82;102818.88;6186295;23;20001;-78
2023/09/03 10:48:51;;;;;;;11.30;9.40;;;;;;;21.69;78.33;102813.13;6185998;23;20005;-78
2023/09/03 10:51:38;;;;;;;11.93;10.07;;;;;;;21.76;77.17;102809.06;6186655;23;20322;-78
2023/09/03 10:54:17;;;;;;;12.02;10.52;;;;;;;21.87;75.55;102818.75;6159580;23;20402;-78
2023/09/03 10:57:15;;;;;;;12.70;10.40;;;;;;;21.93;77.65;102813.00;6185841;23;20085;-78
2023/09/03 10:59:58;;;;;;;11.52;9.65;;;;;;;22.09;77.59;102823.97;6094704;23;20406;-79
2023/09/03 11:02:25;;;;;;;11.98;9.68;;;;;;;22.20;72.51;102810.78;6070775;23;20089;-78
2023/09/03 11:05:11;;;;;;;16.25;9.60;;;;;;;22.45;74.45;102814.91;6094070;23;20117;-78
2023/09/03 11:07:37;;;;;;;9.70;7.65;;;;;;;22.29;68.82;102793.41;6095097;23;20007;-78
2023/09/03 11:10:25;;;;;;;11.23;8.80;;;;;;;22.40;69.62;102810.97;6094920;23;20044;-78
2023/09/03 11:12:51;;;;;;;10.40;8.88;;;;;;;22.42;69.72;102804.63;6094836;23;20416;-77
2023/09/03 11:15:18;;;;;;;11.13;8.27;;;;;;;22.43;69.24;102801.03;6094600;23;20090;-77
2023/09/03 11:17:50;;;;;;;10.15;8.80;;;;;;;22.49;70.42;102816.31;6095293;23;20006;-79
2023/09/03 11:20:35;;;;;;;12.85;9.80;;;;;;;22.53;69.99;102825.66;6153825;23;20009;-76
2023/09/03 11:23:02;;;;;;;10.40;7.15;;;;;;;22.51;69.61;102809.09;6153535;23;20048;-77
2023/09/03 11:25:35;;;;;;;10.27;7.15;;;;;;;22.75;69.90;102822.06;6153480;23;20016;-77
2023/09/03 11:28:01;;;;;;;7.93;6.38;;;;;;;22.80;65.15;102805.84;6153544;23;20331;-78
2023/09/03 11:30:30;;;;;;;9.35;7.72;;;;;;;22.64;64.71;102781.78;6153139;23;20041;-78
2023/09/03 11:32:57;;;;;;;12.35;8.50;;;;;;;22.60;62.67;102784.66;6153451;23;20447;-78
2023/09/03 11:35:23;;;;;;;10.57;7.90;;;;;;;22.76;67.62;102813.19;6171472;23;20058;-78